• Join FlightAware (Why Join?)
  • Login
  • US Flag 
08:31AM EDT


 

Airport Tracker/Info


-or-


 

Live Flight TrackerFlight Track Log ✈ BEL3738 ✈ 25-Apr-2013 ✈ LEMG / AGP - EBBR / BRU

Flight Track Log - Related Links

Times and Time Zones

All times are in EDT time to prevent confusion due to time zone crossing. See the BEL3738 flight status page for this flight to view local times or setup timezone preferences in your user account.

Time Position Orientation Groundspeed Altitude Reporting Facility
EDT Latitude Longitude Course Direction KTS MPH feet Rate Location/Type
11:15AM 38.3327 -3.6665 21° North  Level Estimated
11:16AM 38.4361 -3.6133 22° Northeast  Level Estimated
11:17AM 38.5395 -3.5598 22° Northeast  Level Estimated
11:18AM 38.6429 -3.5062 22° Northeast  Level Estimated
11:19AM 38.7462 -3.4525 22° Northeast  Level Estimated
11:20AM 38.8495 -3.3986 22° Northeast  Level Estimated
11:21AM 38.9528 -3.3445 22° Northeast  Level Estimated
11:22AM 39.0561 -3.2903 22° Northeast  Level Estimated
11:23AM 39.1593 -3.2359 22° Northeast  Level Estimated
11:24AM 39.2625 -3.1814 22° Northeast  Level Estimated
11:25AM 39.3657 -3.1267 22° Northeast  Level Estimated
11:26AM 39.4689 -3.0718 22° Northeast  Level Estimated
11:27AM 39.5720 -3.0168 22° Northeast  Level Estimated
11:28AM 39.6751 -2.9616 22° Northeast  Level Estimated
11:29AM 39.7782 -2.9062 22° Northeast  Level Estimated
11:30AM 39.8813 -2.8507 22° Northeast  Level Estimated
11:31AM 39.9843 -2.7950 22° Northeast  Level Estimated
11:32AM 40.0873 -2.7392 23° Northeast  Level Estimated
11:33AM 40.1903 -2.6832 23° Northeast  Level Estimated
11:34AM 40.2933 -2.6270 23° Northeast  Level Estimated
11:35AM 40.3962 -2.5706 23° Northeast  Level Estimated
11:36AM 40.4991 -2.5141 23° Northeast  Level Estimated
11:37AM 40.6020 -2.4574 23° Northeast  Level Estimated
11:38AM 40.7048 -2.4005 23° Northeast  Level Estimated
11:39AM 40.8076 -2.3434 23° Northeast  Level Estimated
11:40AM 40.9104 -2.2862 23° Northeast  Level Estimated
11:41AM 41.0132 -2.2288 23° Northeast  Level Estimated
11:42AM 41.1159 -2.1712 23° Northeast  Level Estimated
11:43AM 41.2186 -2.1134 23° Northeast  Level Estimated
11:44AM 41.3213 -2.0554 23° Northeast  Level Estimated
11:45AM 41.4239 -1.9973 23° Northeast  Level Estimated
11:46AM 41.5265 -1.9390 23° Northeast  Level Estimated
11:47AM 41.6291 -1.8805 23° Northeast  Level Estimated
11:48AM 41.7316 -1.8218 23° Northeast  Level Estimated
11:49AM 41.8342 -1.7629 23° Northeast  Level Estimated
11:50AM 41.9366 -1.7038 23° Northeast  Level Estimated
11:51AM 42.0391 -1.6445 23° Northeast  Level Estimated
11:52AM 42.1415 -1.5851 23° Northeast  Level Estimated
11:53AM 42.2439 -1.5254 23° Northeast  Level Estimated
11:54AM 42.3463 -1.4656 23° Northeast  Level Estimated
11:55AM 42.4487 -1.4056 23° Northeast  Level Estimated
11:56AM 42.5510 -1.3453 23° Northeast  Level Estimated
11:57AM 42.6532 -1.2849 23° Northeast  Level Estimated
11:58AM 42.7555 -1.2243 24° Northeast  Level Estimated
11:59AM 42.8577 -1.1634 24° Northeast  Level Estimated
12:00PM 42.9599 -1.1024 24° Northeast  Level Estimated
12:01PM 43.0620 -1.0412 24° Northeast  Level Estimated
12:02PM 43.1641 -0.9797 24° Northeast  Level Estimated
12:03PM 43.2662 -0.9181 24° Northeast  Level Estimated
12:04PM 43.3683 -0.8562 24° Northeast  Level Estimated
12:05PM 43.4703 -0.7942 24° Northeast  Level Estimated
12:06PM 43.5723 -0.7319 24° Northeast  Level Estimated
12:07PM 43.6742 -0.6694 24° Northeast  Level Estimated
12:08PM 43.7761 -0.6068 24° Northeast  Level Estimated
12:09PM 43.8780 -0.5438 24° Northeast  Level Estimated
12:10PM 43.9798 -0.4807 24° Northeast  Level Estimated
12:11PM 44.0816 -0.4174 24° Northeast  Level Estimated
12:12PM 44.1834 -0.3538 24° Northeast  Level Estimated
12:13PM 44.2852 -0.2900 24° Northeast  Level Estimated
12:14PM 44.3869 -0.2260 24° Northeast  Level Estimated
12:15PM 44.4885 -0.1618 24° Northeast  Level Estimated
12:16PM 44.5902 -0.0974 24° Northeast  Level Estimated
12:17PM 44.6918 -0.0327 24° Northeast  Level Estimated
12:18PM 44.7933 0.0322 24° Northeast  Level Estimated
12:19PM 44.8948 0.0973 24° Northeast  Level Estimated
12:20PM 44.9963 0.1627 24° Northeast  Level Estimated
12:21PM 45.0978 0.2283 25° Northeast  Level Estimated
12:22PM 45.1992 0.2941 25° Northeast  Level Estimated
12:23PM 45.3005 0.3602 25° Northeast  Level Estimated
12:24PM 45.4019 0.4265 25° Northeast  Level Estimated
12:25PM 45.5032 0.4930 25° Northeast  Level Estimated
12:26PM 45.6044 0.5598 25° Northeast  Level Estimated
12:27PM 45.7057 0.6268 25° Northeast  Level Estimated
12:28PM 45.8068 0.6940 25° Northeast  Level Estimated
12:29PM 45.9080 0.7615 25° Northeast  Level Estimated
12:30PM 46.0091 0.8293 25° Northeast  Level Estimated
12:31PM 46.1101 0.8973 25° Northeast  Level Estimated
12:32PM 46.2112 0.9655 25° Northeast  Level Estimated
12:33PM 46.3121 1.0340 25° Northeast  Level Estimated
12:34PM 46.4131 1.1028 25° Northeast  Level Estimated
12:35PM 46.5140 1.1718 25° Northeast  Level Estimated
12:36PM 46.6148 1.2411 25° Northeast  Level Estimated
12:37PM 46.7156 1.3106 25° Northeast  Level Estimated
12:38PM 46.8164 1.3804 25° Northeast  Level Estimated
12:39PM 46.9171 1.4504 25° Northeast  Level Estimated
12:40PM 47.0178 1.5207 25° Northeast  Level Estimated
12:41PM 47.1184 1.5913 26° Northeast  Level Estimated
12:42PM 47.2190 1.6621 26° Northeast  Level Estimated
12:43PM 47.3196 1.7332 26° Northeast  Level Estimated
12:44PM 47.4201 1.8046 26° Northeast  Level Estimated
12:45PM 47.5206 1.8763 26° Northeast  Level Estimated
12:46PM 47.6210 1.9482 26° Northeast  Level Estimated
12:47PM 47.7214 2.0204 26° Northeast  Level Estimated
12:48PM 47.8217 2.0929 26° Northeast  Level Estimated
12:49PM 47.9220 2.1657 26° Northeast  Level Estimated
12:50PM 48.0222 2.2387 26° Northeast  Level Estimated
12:51PM 48.1224 2.3120 26° Northeast  Level Estimated
12:52PM 48.2225 2.3857 26° Northeast  Level Estimated
12:53PM 48.3226 2.4596 26° Northeast  Level Estimated
12:54PM 48.4227 2.5338 26° Northeast  Level Estimated
12:55PM 48.5227 2.6083 26° Northeast  Level Estimated
12:56PM 48.6226 2.6830 26° Northeast  Level Estimated
12:57PM 48.7225 2.7581 26° Northeast  Level Estimated
12:58PM 48.8224 2.8335 26° Northeast  Level Estimated
12:59PM 48.9222 2.9092 26° Northeast  Level Estimated
01:00PM 49.0219 2.9852 27° Northeast  Level Estimated
01:01PM 49.1217 3.0615 27° Northeast  Level Estimated
01:02PM 49.2213 3.1381 27° Northeast  Level Estimated
01:03PM 49.3209 3.2150 27° Northeast  Level Estimated
01:04PM 49.4205 3.2922 27° Northeast  Level Estimated
01:05PM 49.5200 3.3697 27° Northeast  Level Estimated
01:06PM 49.6194 3.4476 27° Northeast  Level Estimated
01:07PM 49.7188 3.5257 27° Northeast  Level Estimated
01:08PM 49.8182 3.6042 27° Northeast  Level Estimated
01:09PM 49.9174 3.6830 27° Northeast  Level Estimated
01:10PM 50.0167 3.7622 27° Northeast  Level Estimated
01:11PM 50.1159 3.8416 27° Northeast  Level Estimated
01:12PM 50.2150 3.9214 27° Northeast  Level Estimated
01:13PM 50.3141 4.0016 27° Northeast  Level Estimated
01:14PM 50.4131 4.0820 27° Northeast  Level Estimated
01:15PM 50.5121 4.1628 27° Northeast  Level Estimated
01:16PM 50.6110 4.2439 27° Northeast  Level Estimated
01:17PM 50.7098 4.3254 28° Northeast  Level Estimated
01:18PM 50.8086 4.4072 28° Northeast  Level Estimated
01:19PM 50.9014 4.4844 28° Northeast  Level Estimated
01:20PM 50.9014 4.4844 112° Southeast  Level Estimated
01:21PM 50.9014 4.4844 112° Southeast  Level Estimated
01:22PM 50.9014 4.4844 112° Southeast  Level Estimated
01:23PM 50.9014 4.4844 112° Southeast  Level Estimated
01:24PM 50.9014 4.4844 112° Southeast  Level Estimated
01:25PM 50.9014 4.4844 112° Southeast  Level Estimated
01:26PM 50.9014 4.4844 112° Southeast  Level Estimated
01:27PM 50.9014 4.4844 112° Southeast  Level Estimated
01:28PM 50.9014 4.4844 112° Southeast  Level Estimated
01:29PM 50.9014 4.4844 112° Southeast  Level Estimated
01:30PM 50.9014 4.4844 112° Southeast  Level Estimated
01:31PM 50.9014 4.4844 112° Southeast  Level Estimated
01:32PM 50.9014 4.4844 112° Southeast  Level Estimated
01:33PM 50.9014 4.4844 112° Southeast  Level Estimated
01:34PM 50.9014 4.4844 112° Southeast  Level Estimated
01:35PM 50.9014 4.4844 112° Southeast  Level Estimated